Time;durP1;ratioP1;P1;durP2;ratioP2;P2;SDS_P1;SDS_P2;PMS_P1;PMS_P2;Temp;Humidity;BMP_temperature;BMP_pressure;BME280_temperature;BME280_humidity;BME280_pressure;Samples;Min_cycle;Max_cycle;Signal;HPM_P1;HPM_P2
2023/12/12 00:02:03;;;;;;;2.65;1.55;;;;;;;;;;5076590;28;20048;-29
2023/12/12 00:04:29;;;;;;;2.38;1.63;;;;;;;;;;5076583;28;20055;-28
2023/12/12 00:06:55;;;;;;;3.28;1.52;;;;;;;;;;5076983;28;20364;-26
2023/12/12 00:09:21;;;;;;;2.60;1.48;;;;;;;;;;5076687;28;20076;-29
2023/12/12 00:11:47;;;;;;;4.50;1.13;;;;;;;;;;5076507;28;20032;-28
2023/12/12 00:14:13;;;;;;;2.22;1.40;;;;;;;;;;5076579;28;20359;-27
2023/12/12 00:16:40;;;;;;;5.03;1.77;;;;;;;;;;5076790;28;20032;-25
2023/12/12 00:19:06;;;;;;;2.13;1.20;;;;;;;;;;5076733;28;20025;-26
2023/12/12 00:21:32;;;;;;;3.08;1.45;;;;;;;;;;5076351;28;20059;-31
2023/12/12 00:23:58;;;;;;;4.07;1.27;;;;;;;;;;5076551;28;20456;-29
2023/12/12 00:26:24;;;;;;;3.40;1.80;;;;;;;;;;5076601;28;20024;-29
2023/12/12 00:28:50;;;;;;;2.22;1.23;;;;;;;;;;5076287;28;20036;-28
2023/12/12 00:31:16;;;;;;;2.80;1.42;;;;;;;;;;5076521;28;20028;-27
2023/12/12 00:33:43;;;;;;;2.42;1.92;;;;;;;;;;5076118;28;20051;-28
2023/12/12 00:36:09;;;;;;;4.63;1.80;;;;;;;;;;5076389;28;20035;-29
2023/12/12 00:38:35;;;;;;;2.15;1.40;;;;;;;;;;5076310;28;20455;-27
2023/12/12 00:41:04;;;;;;;3.03;1.30;;;;;;;;;;5076229;28;20467;-27
2023/12/12 00:43:31;;;;;;;5.95;1.27;;;;;;;;;;5076458;28;20028;-28
2023/12/12 00:45:57;;;;;;;2.78;1.42;;;;;;;;;;5075944;28;20078;-27
2023/12/12 00:48:23;;;;;;;4.45;1.40;;;;;;;;;;5076414;28;20028;-29
2023/12/12 00:50:49;;;;;;;2.38;1.42;;;;;;;;;;5076073;28;20324;-26
2023/12/12 00:53:16;;;;;;;2.65;1.30;;;;;;;;;;5075708;28;20021;-30
2023/12/12 00:55:42;;;;;;;2.47;1.40;;;;;;;;;;5075744;28;20025;-27
2023/12/12 00:58:08;;;;;;;2.25;1.30;;;;;;;;;;5075715;28;20482;-27
2023/12/12 01:00:34;;;;;;;2.90;1.23;;;;;;;;;;5075593;28;20113;-29
2023/12/12 01:03:00;;;;;;;2.67;1.30;;;;;;;;;;5075495;28;20047;-27
2023/12/12 01:05:26;;;;;;;3.65;1.70;;;;;;;;;;5075791;28;20105;-31
2023/12/12 01:07:53;;;;;;;3.38;1.30;;;;;;;;;;5074560;28;20040;-27
2023/12/12 01:10:19;;;;;;;4.43;1.33;;;;;;;;;;5075391;28;20017;-29
2023/12/12 01:12:45;;;;;;;4.82;1.80;;;;;;;;;;5075453;28;20071;-26
2023/12/12 01:15:11;;;;;;;1.88;1.73;;;;;;;;;;5075321;28;20538;-26
2023/12/12 01:17:37;;;;;;;2.83;1.30;;;;;;;;;;5075575;28;20031;-29
2023/12/12 01:20:07;;;;;;;3.17;1.80;;;;;;;;;;5075276;28;20090;-28
2023/12/12 01:22:33;;;;;;;2.33;1.60;;;;;;;;;;5074975;28;20054;-29
2023/12/12 01:24:59;;;;;;;4.43;3.13;;;;;;;;;;5075157;28;20094;-27
2023/12/12 01:27:25;;;;;;;2.83;1.42;;;;;;;;;;5075399;28;20436;-28
2023/12/12 01:29:52;;;;;;;3.40;1.42;;;;;;;;;;5075663;28;20047;-27
2023/12/12 01:32:18;;;;;;;3.30;1.45;;;;;;;;;;5074999;28;20032;-28
2023/12/12 01:34:44;;;;;;;2.03;1.40;;;;;;;;;;5075243;28;20021;-27
2023/12/12 01:37:10;;;;;;;3.65;1.50;;;;;;;;;;5075005;28;20020;-27
2023/12/12 01:39:36;;;;;;;1.77;1.08;;;;;;;;;;5074961;28;20047;-26
2023/12/12 01:42:02;;;;;;;5.55;1.58;;;;;;;;;;5074745;28;20032;-24
2023/12/12 01:44:28;;;;;;;3.20;1.55;;;;;;;;;;5074868;28;20088;-30
2023/12/12 01:46:55;;;;;;;2.20;1.30;;;;;;;;;;5074899;28;20101;-32
2023/12/12 01:49:21;;;;;;;2.03;1.40;;;;;;;;;;5075112;28;20029;-29
2023/12/12 01:51:47;;;;;;;1.95;1.60;;;;;;;;;;5074757;28;20089;-29
2023/12/12 01:54:14;;;;;;;3.88;1.45;;;;;;;;;;5074796;28;20028;-28
2023/12/12 01:56:41;;;;;;;2.40;1.40;;;;;;;;;;5074729;28;20115;-28
2023/12/12 01:59:07;;;;;;;1.98;1.48;;;;;;;;;;5074731;28;20021;-26
2023/12/12 02:01:33;;;;;;;3.28;1.63;;;;;;;;;;5074624;28;20103;-30
2023/12/12 02:04:00;;;;;;;2.22;1.30;;;;;;;;;;5074431;28;20044;-25
2023/12/12 02:06:28;;;;;;;2.28;1.50;;;;;;;;;;5075169;28;20095;-29
2023/12/12 02:08:54;;;;;;;2.17;1.38;;;;;;;;;;5074565;28;20100;-28
2023/12/12 02:11:23;;;;;;;1.70;1.25;;;;;;;;;;5074879;28;20442;-30
2023/12/12 02:13:49;;;;;;;3.55;1.30;;;;;;;;;;5074762;28;20024;-29
2023/12/12 02:16:17;;;;;;;1.98;1.38;;;;;;;;;;5074793;28;20032;-27
2023/12/12 02:18:43;;;;;;;1.90;1.15;;;;;;;;;;5076396;28;20078;-27
2023/12/12 02:21:09;;;;;;;2.42;1.30;;;;;;;;;;5078629;28;20421;-31
2023/12/12 02:23:35;;;;;;;4.55;2.25;;;;;;;;;;5077611;28;20062;-30
2023/12/12 02:26:02;;;;;;;2.65;1.65;;;;;;;;;;5078601;28;20032;-27
2023/12/12 02:28:29;;;;;;;2.55;1.33;;;;;;;;;;5078830;28;20096;-26
2023/12/12 02:30:55;;;;;;;3.55;1.70;;;;;;;;;;5078797;28;20047;-28
2023/12/12 02:33:21;;;;;;;2.58;0.90;;;;;;;;;;5078400;28;20034;-30
2023/12/12 02:35:48;;;;;;;1.50;1.10;;;;;;;;;;5078426;28;20067;-27
2023/12/12 02:38:14;;;;;;;3.13;1.45;;;;;;;;;;5078684;28;20021;-28
2023/12/12 02:40:40;;;;;;;3.20;1.30;;;;;;;;;;5078287;28;20017;-27
2023/12/12 02:43:06;;;;;;;2.55;1.10;;;;;;;;;;5078135;28;20052;-26
2023/12/12 02:45:32;;;;;;;4.72;1.55;;;;;;;;;;5078812;28;20311;-26
2023/12/12 02:47:59;;;;;;;3.13;1.38;;;;;;;;;;5078202;28;20447;-29
2023/12/12 02:50:25;;;;;;;2.22;1.73;;;;;;;;;;5078104;28;20024;-27
2023/12/12 02:52:51;;;;;;;1.70;1.35;;;;;;;;;;5078294;28;20033;-28
2023/12/12 02:55:17;;;;;;;3.28;1.95;;;;;;;;;;5078595;28;20028;-25
2023/12/12 02:57:43;;;;;;;1.73;1.30;;;;;;;;;;5078288;28;20359;-27
2023/12/12 03:00:10;;;;;;;2.83;1.70;;;;;;;;;;5077955;28;20032;-27
2023/12/12 03:02:36;;;;;;;1.80;1.10;;;;;;;;;;5077733;28;20044;-27
2023/12/12 03:05:04;;;;;;;1.55;1.08;;;;;;;;;;5078147;28;20021;-27
2023/12/12 03:07:31;;;;;;;3.55;1.20;;;;;;;;;;5077738;28;20087;-26
2023/12/12 03:09:57;;;;;;;2.15;1.40;;;;;;;;;;5077697;28;20035;-27
2023/12/12 03:12:23;;;;;;;2.38;1.20;;;;;;;;;;5077583;28;20470;-29
2023/12/12 03:14:50;;;;;;;1.35;1.20;;;;;;;;;;5077674;28;20028;-27
2023/12/12 03:17:16;;;;;;;1.77;1.20;;;;;;;;;;5077614;28;20067;-30
2023/12/12 03:19:42;;;;;;;2.65;1.30;;;;;;;;;;5077854;28;20043;-28
2023/12/12 03:22:08;;;;;;;2.75;1.30;;;;;;;;;;5077615;28;20388;-29
2023/12/12 03:24:34;;;;;;;1.30;1.10;;;;;;;;;;5078008;28;20021;-28
2023/12/12 03:27:01;;;;;;;3.20;1.40;;;;;;;;;;5077744;28;20108;-29
2023/12/12 03:29:27;;;;;;;2.25;1.60;;;;;;;;;;5077327;28;20032;-26
2023/12/12 03:31:53;;;;;;;1.38;0.98;;;;;;;;;;5076802;28;20134;-32
2023/12/12 03:34:19;;;;;;;2.60;1.13;;;;;;;;;;5077325;28;20059;-28
2023/12/12 03:36:46;;;;;;;3.10;1.33;;;;;;;;;;5077789;28;20079;-28
2023/12/12 03:39:12;;;;;;;2.28;1.15;;;;;;;;;;5077277;28;20033;-27
2023/12/12 03:41:38;;;;;;;1.55;1.27;;;;;;;;;;5077403;28;20020;-27
2023/12/12 03:44:05;;;;;;;2.38;1.25;;;;;;;;;;5077902;28;20048;-30
2023/12/12 03:46:31;;;;;;;2.13;1.33;;;;;;;;;;5077117;28;20025;-27
2023/12/12 03:48:57;;;;;;;4.47;1.70;;;;;;;;;;5077012;28;20020;-27
2023/12/12 03:51:23;;;;;;;2.55;1.42;;;;;;;;;;5077085;28;20036;-31
2023/12/12 03:53:50;;;;;;;2.28;1.77;;;;;;;;;;5077420;28;20035;-29
2023/12/12 03:56:16;;;;;;;3.72;1.40;;;;;;;;;;5076892;28;20517;-30
2023/12/12 03:58:42;;;;;;;2.85;1.40;;;;;;;;;;5076892;28;20052;-28
2023/12/12 04:01:08;;;;;;;1.60;1.15;;;;;;;;;;5076774;28;20337;-27
2023/12/12 04:03:34;;;;;;;2.47;0.90;;;;;;;;;;5076533;28;20075;-28
2023/12/12 04:06:04;;;;;;;2.03;1.30;;;;;;;;;;5077047;28;20419;-26
2023/12/12 04:08:30;;;;;;;2.75;1.30;;;;;;;;;;5076675;28;20103;-29
2023/12/12 04:10:56;;;;;;;2.28;1.38;;;;;;;;;;5077179;28;20092;-27
2023/12/12 04:13:22;;;;;;;1.27;1.15;;;;;;;;;;5077133;28;20319;-29
2023/12/12 04:15:49;;;;;;;1.83;1.05;;;;;;;;;;5077109;28;20021;-26
2023/12/12 04:18:15;;;;;;;2.17;1.17;;;;;;;;;;5076537;28;20422;-29
2023/12/12 04:20:41;;;;;;;2.70;1.10;;;;;;;;;;5076384;28;20508;-29
2023/12/12 04:23:07;;;;;;;2.35;1.38;;;;;;;;;;5076551;28;20052;-27
2023/12/12 04:25:33;;;;;;;4.25;1.83;;;;;;;;;;5076924;28;20439;-27
2023/12/12 04:27:59;;;;;;;3.03;1.73;;;;;;;;;;5076916;28;20047;-27
2023/12/12 04:30:26;;;;;;;1.98;1.13;;;;;;;;;;5075344;28;20017;-27
2023/12/12 04:32:52;;;;;;;2.17;1.42;;;;;;;;;;5076423;28;20125;-26
2023/12/12 04:35:19;;;;;;;2.88;1.80;;;;;;;;;;5077219;28;20028;-30
2023/12/12 04:37:46;;;;;;;2.17;1.27;;;;;;;;;;5076643;28;20025;-28
2023/12/12 04:40:13;;;;;;;1.17;1.02;;;;;;;;;;5076345;28;20112;-28
2023/12/12 04:42:39;;;;;;;1.40;1.00;;;;;;;;;;5075662;28;20463;-27
2023/12/12 04:45:06;;;;;;;3.22;1.67;;;;;;;;;;5076478;28;20024;-26
2023/12/12 04:47:32;;;;;;;3.33;1.73;;;;;;;;;;5075911;28;20086;-25
2023/12/12 04:49:58;;;;;;;2.42;1.20;;;;;;;;;;5075877;28;20099;-27
2023/12/12 04:52:24;;;;;;;2.00;1.63;;;;;;;;;;5075910;28;20025;-28
2023/12/12 04:54:51;;;;;;;1.27;1.10;;;;;;;;;;5075671;28;20024;-26
2023/12/12 04:57:17;;;;;;;2.95;1.60;;;;;;;;;;5075731;28;20031;-26
2023/12/12 04:59:43;;;;;;;1.85;1.20;;;;;;;;;;5075915;28;20439;-25
2023/12/12 05:02:09;;;;;;;3.88;1.95;;;;;;;;;;5075763;28;20024;-29
2023/12/12 05:04:37;;;;;;;2.83;1.50;;;;;;;;;;5075338;28;20059;-30
2023/12/12 05:07:04;;;;;;;1.50;1.27;;;;;;;;;;5075394;28;20012;-30
2023/12/12 05:09:30;;;;;;;3.40;1.38;;;;;;;;;;5075347;28;20032;-33
2023/12/12 05:11:56;;;;;;;1.27;1.17;;;;;;;;;;5075676;28;20312;-27
2023/12/12 05:14:22;;;;;;;2.50;1.38;;;;;;;;;;5075215;28;20025;-31
2023/12/12 05:16:49;;;;;;;2.13;1.20;;;;;;;;;;5075650;28;20412;-28
2023/12/12 05:19:15;;;;;;;2.10;1.60;;;;;;;;;;5075095;28;20090;-26
2023/12/12 05:21:41;;;;;;;1.60;1.33;;;;;;;;;;5075542;28;20029;-33
2023/12/12 05:24:07;;;;;;;3.15;1.42;;;;;;;;;;5074947;28;20108;-33
2023/12/12 05:26:34;;;;;;;2.38;1.40;;;;;;;;;;5075756;28;20339;-27
2023/12/12 05:29:00;;;;;;;3.53;1.30;;;;;;;;;;5074767;28;20104;-26
2023/12/12 05:31:27;;;;;;;1.83;1.20;;;;;;;;;;5075016;28;20112;-25
2023/12/12 05:33:53;;;;;;;4.28;1.48;;;;;;;;;;5074588;28;20037;-27
2023/12/12 05:36:19;;;;;;;2.60;1.67;;;;;;;;;;5074808;28;20517;-30
2023/12/12 05:38:46;;;;;;;3.00;1.33;;;;;;;;;;5074762;28;20491;-31
2023/12/12 05:41:12;;;;;;;11.35;1.10;;;;;;;;;;5074652;28;20024;-28
2023/12/12 05:43:38;;;;;;;2.55;1.25;;;;;;;;;;5074556;28;20032;-27
2023/12/12 05:46:04;;;;;;;4.90;1.45;;;;;;;;;;5075075;28;20078;-30
2023/12/12 05:48:31;;;;;;;5.75;1.50;;;;;;;;;;5074423;28;20032;-27
2023/12/12 05:50:57;;;;;;;2.08;1.33;;;;;;;;;;5074463;28;20031;-29
2023/12/12 05:53:23;;;;;;;2.88;1.35;;;;;;;;;;5073964;28;20107;-34
2023/12/12 05:55:49;;;;;;;2.85;1.27;;;;;;;;;;5074692;28;20070;-32
2023/12/12 05:58:16;;;;;;;1.55;1.30;;;;;;;;;;5074400;28;20028;-28
2023/12/12 06:00:42;;;;;;;3.65;1.52;;;;;;;;;;5074911;28;20036;-26
2023/12/12 06:03:08;;;;;;;2.63;1.45;;;;;;;;;;5074077;28;20048;-29
2023/12/12 06:05:34;;;;;;;2.80;1.40;;;;;;;;;;5074734;28;20114;-29
2023/12/12 06:08:01;;;;;;;3.15;1.35;;;;;;;;;;5074429;28;20024;-30
2023/12/12 06:10:27;;;;;;;3.88;1.40;;;;;;;;;;5074378;28;20459;-27
2023/12/12 06:12:54;;;;;;;1.25;1.15;;;;;;;;;;5074568;28;20329;-28
2023/12/12 06:15:20;;;;;;;4.28;1.40;;;;;;;;;;5074299;28;20048;-28
2023/12/12 06:17:47;;;;;;;2.78;1.00;;;;;;;;;;5074843;28;20035;-30
2023/12/12 06:20:13;;;;;;;2.53;1.38;;;;;;;;;;5074517;28;20455;-32
2023/12/12 06:22:40;;;;;;;2.65;1.70;;;;;;;;;;5074079;28;20032;-31
2023/12/12 06:25:06;;;;;;;3.92;1.35;;;;;;;;;;5074228;28;20017;-32
2023/12/12 06:27:33;;;;;;;5.78;1.42;;;;;;;;;;5074584;28;20306;-30
2023/12/12 06:29:59;;;;;;;4.35;1.85;;;;;;;;;;5074540;28;20031;-31
2023/12/12 06:32:25;;;;;;;2.83;1.15;;;;;;;;;;5074574;28;20451;-29
2023/12/12 06:34:51;;;;;;;1.83;1.20;;;;;;;;;;5074607;28;20078;-28
2023/12/12 06:37:17;;;;;;;1.70;1.25;;;;;;;;;;5074663;28;20055;-27
2023/12/12 06:39:43;;;;;;;2.88;1.20;;;;;;;;;;5074005;28;20100;-27
2023/12/12 06:42:11;;;;;;;3.03;1.02;;;;;;;;;;5073730;28;20020;-31
2023/12/12 06:44:37;;;;;;;2.08;1.02;;;;;;;;;;5073014;28;20047;-27
2023/12/12 06:47:04;;;;;;;4.13;1.40;;;;;;;;;;5074046;28;20490;-27
2023/12/12 06:49:30;;;;;;;2.50;1.30;;;;;;;;;;5074641;28;20104;-29
2023/12/12 06:51:56;;;;;;;2.15;1.45;;;;;;;;;;5074016;28;20035;-26
2023/12/12 06:54:22;;;;;;;4.05;1.60;;;;;;;;;;5074406;28;20355;-28
2023/12/12 06:56:48;;;;;;;2.30;1.08;;;;;;;;;;5073966;28;20032;-29
2023/12/12 06:59:14;;;;;;;2.35;1.25;;;;;;;;;;5074465;28;20029;-27
2023/12/12 07:01:40;;;;;;;2.72;1.60;;;;;;;;;;5073854;28;20059;-28
2023/12/12 07:04:07;;;;;;;2.28;1.27;;;;;;;;;;5074192;28;20047;-28
2023/12/12 07:06:33;;;;;;;3.17;1.35;;;;;;;;;;5077926;28;20055;-32
2023/12/12 07:08:59;;;;;;;1.70;1.00;;;;;;;;;;5077659;28;20146;-29
2023/12/12 07:11:25;;;;;;;2.22;1.20;;;;;;;;;;5077890;28;20036;-30
2023/12/12 07:13:51;;;;;;;2.53;1.27;;;;;;;;;;5077448;28;20017;-26
2023/12/12 07:16:18;;;;;;;2.72;1.33;;;;;;;;;;5077668;28;20049;-27
2023/12/12 07:18:44;;;;;;;6.78;1.10;;;;;;;;;;5077692;28;20122;-28
2023/12/12 07:21:11;;;;;;;5.43;1.48;;;;;;;;;;5077678;28;20033;-29
2023/12/12 07:23:37;;;;;;;2.28;1.52;;;;;;;;;;5077378;28;20101;-28
2023/12/12 07:26:03;;;;;;;2.75;0.98;;;;;;;;;;5077722;28;20025;-26
2023/12/12 07:28:29;;;;;;;2.03;1.08;;;;;;;;;;5077399;28;20016;-30
2023/12/12 07:30:55;;;;;;;2.28;1.17;;;;;;;;;;5077613;28;20033;-30
2023/12/12 07:33:22;;;;;;;3.72;1.10;;;;;;;;;;5077002;28;20020;-29
2023/12/12 07:35:48;;;;;;;2.40;1.30;;;;;;;;;;5076965;28;20027;-27
2023/12/12 07:38:16;;;;;;;4.78;1.85;;;;;;;;;;5076963;28;20352;-29
2023/12/12 07:40:43;;;;;;;2.10;1.27;;;;;;;;;;5077085;28;20451;-26
2023/12/12 07:43:10;;;;;;;2.75;1.30;;;;;;;;;;5077222;28;20024;-29
2023/12/12 07:45:36;;;;;;;8.52;1.40;;;;;;;;;;5077097;28;20051;-29
2023/12/12 07:48:03;;;;;;;3.53;1.27;;;;;;;;;;5076990;28;20020;-29
2023/12/12 07:50:29;;;;;;;4.28;1.90;;;;;;;;;;5076894;28;20040;-29
2023/12/12 07:52:55;;;;;;;1.45;1.08;;;;;;;;;;5076774;28;20036;-26
2023/12/12 07:55:21;;;;;;;10.90;1.60;;;;;;;;;;5076828;28;20398;-28
2023/12/12 07:57:47;;;;;;;3.20;1.77;;;;;;;;;;5077072;28;20108;-28
2023/12/12 08:00:14;;;;;;;4.07;1.52;;;;;;;;;;5076950;28;20337;-29
2023/12/12 08:02:40;;;;;;;1.85;1.08;;;;;;;;;;5076240;28;20051;-30
2023/12/12 08:05:06;;;;;;;4.55;1.25;;;;;;;;;;5077251;28;20082;-30
2023/12/12 08:07:32;;;;;;;5.80;1.55;;;;;;;;;;5076888;28;20411;-26
2023/12/12 08:09:59;;;;;;;2.08;1.35;;;;;;;;;;5076594;28;20045;-28
2023/12/12 08:12:25;;;;;;;3.30;1.23;;;;;;;;;;5076964;28;20362;-30
2023/12/12 08:14:55;;;;;;;4.32;1.45;;;;;;;;;;5076438;28;20034;-26
2023/12/12 08:17:21;;;;;;;6.40;1.75;;;;;;;;;;5075945;28;20024;-28
2023/12/12 08:19:48;;;;;;;5.25;1.67;;;;;;;;;;5076704;28;20028;-31
2023/12/12 08:22:14;;;;;;;7.90;2.22;;;;;;;;;;5077059;28;20043;-28
2023/12/12 08:24:40;;;;;;;5.43;1.67;;;;;;;;;;5076317;28;20355;-27
2023/12/12 08:27:07;;;;;;;6.03;2.38;;;;;;;;;;5076272;28;20027;-25
2023/12/12 08:29:34;;;;;;;6.95;1.10;;;;;;;;;;5076010;28;20032;-24
2023/12/12 08:32:00;;;;;;;2.80;2.10;;;;;;;;;;5076221;28;20146;-29
2023/12/12 08:34:26;;;;;;;2.35;1.58;;;;;;;;;;5076306;28;20020;-25
2023/12/12 08:36:52;;;;;;;5.13;1.70;;;;;;;;;;5076466;28;20050;-28
2023/12/12 08:39:18;;;;;;;3.05;1.52;;;;;;;;;;5076245;28;20439;-28
2023/12/12 08:41:45;;;;;;;3.17;1.25;;;;;;;;;;5075706;28;20031;-26
2023/12/12 08:44:11;;;;;;;2.75;1.15;;;;;;;;;;5076074;28;20021;-26
2023/12/12 08:46:37;;;;;;;5.25;1.10;;;;;;;;;;5076652;28;20021;-25
2023/12/12 08:49:03;;;;;;;5.53;1.58;;;;;;;;;;5075761;28;20086;-28
2023/12/12 08:51:30;;;;;;;4.80;1.60;;;;;;;;;;5075702;28;20455;-29
2023/12/12 08:53:58;;;;;;;8.82;1.40;;;;;;;;;;5075828;28;20448;-29
2023/12/12 08:56:25;;;;;;;7.05;1.83;;;;;;;;;;5075541;28;20027;-31
2023/12/12 08:58:51;;;;;;;8.55;1.60;;;;;;;;;;5076053;28;20086;-29
2023/12/12 09:01:18;;;;;;;5.72;1.77;;;;;;;;;;5075575;28;20039;-31
2023/12/12 09:03:44;;;;;;;4.50;2.55;;;;;;;;;;5075278;28;20379;-31
2023/12/12 09:06:11;;;;;;;3.92;1.35;;;;;;;;;;5075306;28;20019;-26
2023/12/12 09:08:37;;;;;;;6.63;2.10;;;;;;;;;;5075238;28;20035;-29
2023/12/12 09:11:03;;;;;;;2.67;1.60;;;;;;;;;;5075636;28;20027;-29
2023/12/12 09:13:29;;;;;;;6.35;1.30;;;;;;;;;;5075249;28;20106;-26
2023/12/12 09:15:56;;;;;;;4.15;1.40;;;;;;;;;;5075487;28;20052;-28
2023/12/12 09:18:22;;;;;;;2.90;1.55;;;;;;;;;;5075447;28;20108;-28
2023/12/12 09:20:49;;;;;;;9.52;1.63;;;;;;;;;;5075367;28;20028;-28
2023/12/12 09:23:16;;;;;;;4.00;1.27;;;;;;;;;;5075047;28;20082;-30
2023/12/12 09:25:43;;;;;;;8.43;1.30;;;;;;;;;;5075084;28;20055;-27
2023/12/12 09:28:09;;;;;;;1.85;1.05;;;;;;;;;;5074789;28;20028;-29
2023/12/12 09:30:35;;;;;;;2.60;1.38;;;;;;;;;;5075149;28;20317;-28
2023/12/12 09:33:02;;;;;;;4.20;1.45;;;;;;;;;;5075437;28;20335;-29
2023/12/12 09:35:28;;;;;;;2.65;1.77;;;;;;;;;;5074930;28;20035;-25
2023/12/12 09:37:54;;;;;;;4.22;1.42;;;;;;;;;;5073853;28;20028;-28
2023/12/12 09:40:21;;;;;;;4.55;1.50;;;;;;;;;;5075159;28;20052;-25
2023/12/12 09:42:50;;;;;;;13.18;1.40;;;;;;;;;;5074725;28;20024;-30
2023/12/12 09:45:17;;;;;;;3.85;2.40;;;;;;;;;;5075064;28;20122;-26
2023/12/12 09:47:44;;;;;;;2.72;1.35;;;;;;;;;;5075032;28;20020;-29
2023/12/12 09:50:11;;;;;;;5.18;2.70;;;;;;;;;;5074776;28;20047;-27
2023/12/12 09:52:37;;;;;;;4.72;1.42;;;;;;;;;;5074545;28;20029;-28
2023/12/12 09:55:04;;;;;;;7.20;1.65;;;;;;;;;;5074818;28;20105;-28
2023/12/12 09:57:30;;;;;;;3.88;1.38;;;;;;;;;;5075321;28;20028;-33
2023/12/12 09:59:58;;;;;;;4.85;1.52;;;;;;;;;;5074585;28;20052;-32
2023/12/12 10:02:27;;;;;;;2.25;1.00;;;;;;;;;;5074470;28;20039;-30
2023/12/12 10:04:54;;;;;;;3.50;1.40;;;;;;;;;;5074799;28;20067;-27
2023/12/12 10:07:20;;;;;;;2.90;1.13;;;;;;;;;;5074412;28;20141;-28
2023/12/12 10:09:48;;;;;;;5.72;1.80;;;;;;;;;;5074331;28;20032;-28
2023/12/12 10:12:14;;;;;;;3.97;1.23;;;;;;;;;;5074217;28;20112;-27
2023/12/12 10:14:43;;;;;;;6.68;1.10;;;;;;;;;;5074584;28;20154;-31
2023/12/12 10:17:11;;;;;;;1.35;1.10;;;;;;;;;;5074407;28;20406;-32
2023/12/12 10:19:38;;;;;;;1.85;1.20;;;;;;;;;;5074401;28;20043;-25
2023/12/12 10:22:11;;;;;;;4.18;1.20;;;;;;;;;;5074021;28;20052;-27
2023/12/12 10:24:37;;;;;;;4.05;1.38;;;;;;;;;;5074118;28;20023;-26
2023/12/12 10:27:04;;;;;;;6.93;1.60;;;;;;;;;;5073258;28;20016;-26
2023/12/12 10:29:31;;;;;;;12.10;1.83;;;;;;;;;;5074473;28;20035;-29
2023/12/12 10:32:00;;;;;;;5.93;1.30;;;;;;;;;;5074218;28;20024;-33
2023/12/12 10:34:27;;;;;;;3.08;1.98;;;;;;;;;;5074237;28;20052;-26
2023/12/12 10:36:54;;;;;;;3.15;1.63;;;;;;;;;;5074254;28;20122;-28
2023/12/12 10:39:20;;;;;;;3.55;1.38;;;;;;;;;;5074897;28;20024;-26
2023/12/12 10:41:55;;;;;;;2.35;1.27;;;;;;;;;;5078149;28;20021;-29
2023/12/12 10:44:22;;;;;;;6.13;1.58;;;;;;;;;;5078646;28;20485;-28
2023/12/12 10:46:52;;;;;;;11.50;2.65;;;;;;;;;;5077923;28;20082;-27
2023/12/12 10:49:24;;;;;;;3.67;1.10;;;;;;;;;;5077943;28;20025;-29
2023/12/12 10:51:50;;;;;;;7.35;1.55;;;;;;;;;;5078419;28;20029;-28
2023/12/12 10:54:17;;;;;;;11.63;1.67;;;;;;;;;;5077752;28;20024;-28
2023/12/12 10:56:46;;;;;;;8.00;1.77;;;;;;;;;;5077693;28;20035;-32
2023/12/12 10:59:16;;;;;;;6.15;1.70;;;;;;;;;;5077602;28;20033;-31
2023/12/12 11:01:48;;;;;;;7.30;2.15;;;;;;;;;;5078028;28;20028;-30
2023/12/12 11:04:15;;;;;;;3.22;1.60;;;;;;;;;;5077721;28;20109;-30
2023/12/12 11:06:43;;;;;;;4.72;1.23;;;;;;;;;;5077636;28;20095;-29
2023/12/12 11:09:09;;;;;;;4.63;1.40;;;;;;;;;;5077572;28;20016;-29
2023/12/12 11:11:38;;;;;;;5.15;2.30;;;;;;;;;;5077480;28;20028;-31
2023/12/12 11:14:04;;;;;;;3.53;1.33;;;;;;;;;;5076327;28;20459;-29
2023/12/12 11:16:31;;;;;;;5.55;1.30;;;;;;;;;;5077515;28;20035;-26
2023/12/12 11:18:59;;;;;;;8.65;1.42;;;;;;;;;;5077631;28;20356;-26
2023/12/12 11:21:44;;;;;;;7.18;1.70;;;;;;;;;;5077458;28;20036;-30
2023/12/12 11:24:11;;;;;;;5.00;1.70;;;;;;;;;;5078065;28;20024;-27
2023/12/12 11:26:38;;;;;;;11.43;1.73;;;;;;;;;;5077550;28;20123;-30
2023/12/12 11:29:08;;;;;;;6.22;1.48;;;;;;;;;;5077237;28;20351;-31
2023/12/12 11:31:35;;;;;;;5.28;1.42;;;;;;;;;;5077418;28;20328;-27
2023/12/12 11:34:05;;;;;;;5.63;1.30;;;;;;;;;;5077376;28;20511;-26
2023/12/12 11:36:53;;;;;;;5.97;1.17;;;;;;;;;;5077682;28;20050;-33
2023/12/12 11:39:23;;;;;;;5.57;1.25;;;;;;;;;;5076969;28;20028;-29
2023/12/12 11:41:53;;;;;;;4.13;1.05;;;;;;;;;;5077099;28;20388;-29
2023/12/12 11:44:22;;;;;;;4.55;1.77;;;;;;;;;;5076952;28;20024;-27
2023/12/12 11:46:50;;;;;;;4.63;1.08;;;;;;;;;;5077138;28;20489;-28
2023/12/12 11:49:21;;;;;;;6.80;1.27;;;;;;;;;;5077191;28;20024;-30
2023/12/12 11:51:49;;;;;;;3.55;1.17;;;;;;;;;;5075841;28;20111;-28
2023/12/12 11:54:23;;;;;;;3.15;1.30;;;;;;;;;;5076852;28;20458;-27
2023/12/12 11:56:59;;;;;;;5.00;1.10;;;;;;;;;;5077116;28;20036;-31
2023/12/12 11:59:26;;;;;;;3.00;1.27;;;;;;;;;;5077102;28;20033;-30
2023/12/12 12:01:53;;;;;;;3.28;1.50;;;;;;;;;;5076878;28;20035;-30
2023/12/12 12:04:19;;;;;;;5.93;1.17;;;;;;;;;;5076505;28;20044;-28
2023/12/12 12:06:45;;;;;;;2.50;1.20;;;;;;;;;;5076639;28;20097;-27
2023/12/12 12:09:13;;;;;;;3.88;1.48;;;;;;;;;;5077133;28;20482;-28
2023/12/12 12:11:39;;;;;;;3.78;1.30;;;;;;;;;;5076478;28;20032;-28
2023/12/12 12:14:06;;;;;;;6.65;1.35;;;;;;;;;;5076453;28;20037;-27
2023/12/12 12:16:32;;;;;;;2.38;1.20;;;;;;;;;;5076396;28;20040;-30
2023/12/12 12:18:58;;;;;;;1.83;1.10;;;;;;;;;;5076308;28;20363;-28
2023/12/12 12:21:25;;;;;;;7.30;1.02;;;;;;;;;;5076735;28;20051;-28
2023/12/12 12:23:52;;;;;;;6.00;1.10;;;;;;;;;;5076119;28;20032;-28
2023/12/12 12:26:18;;;;;;;8.20;2.28;;;;;;;;;;5076243;28;20347;-25
2023/12/12 12:28:45;;;;;;;8.73;1.77;;;;;;;;;;5076325;28;20024;-29
2023/12/12 12:31:11;;;;;;;2.80;1.50;;;;;;;;;;5076052;28;20021;-30
2023/12/12 12:33:38;;;;;;;5.85;3.45;;;;;;;;;;5076026;28;20029;-28
2023/12/12 12:36:05;;;;;;;2.58;1.15;;;;;;;;;;5076173;28;20016;-26
2023/12/12 12:38:31;;;;;;;3.47;1.15;;;;;;;;;;5075816;28;20027;-29
2023/12/12 12:40:58;;;;;;;3.22;1.08;;;;;;;;;;5076167;28;20021;-30
2023/12/12 12:43:25;;;;;;;4.53;1.60;;;;;;;;;;5075745;28;20367;-26
2023/12/12 12:45:52;;;;;;;9.55;2.25;;;;;;;;;;5075651;28;20032;-26
2023/12/12 12:48:18;;;;;;;4.13;1.45;;;;;;;;;;5075629;28;20024;-26
2023/12/12 12:50:48;;;;;;;3.40;1.50;;;;;;;;;;5075563;28;20028;-29
2023/12/12 12:53:14;;;;;;;3.15;1.52;;;;;;;;;;5075587;28;20036;-27
2023/12/12 12:55:42;;;;;;;4.32;1.48;;;;;;;;;;5076158;28;20020;-29
2023/12/12 12:58:12;;;;;;;6.00;1.10;;;;;;;;;;5075510;28;20028;-29
2023/12/12 13:00:38;;;;;;;1.97;0.90;;;;;;;;;;5075421;28;20113;-27
2023/12/12 13:03:04;;;;;;;4.03;1.20;;;;;;;;;;5074837;28;20044;-30
2023/12/12 13:05:31;;;;;;;3.35;1.10;;;;;;;;;;5075835;28;20032;-29
2023/12/12 13:07:57;;;;;;;2.92;1.38;;;;;;;;;;5075841;28;20017;-27
2023/12/12 13:10:24;;;;;;;3.85;1.52;;;;;;;;;;5075245;28;20032;-29
2023/12/12 13:12:51;;;;;;;9.02;1.70;;;;;;;;;;5075078;28;20463;-27
2023/12/12 13:15:18;;;;;;;3.58;1.15;;;;;;;;;;5075131;28;20025;-27
2023/12/12 13:17:44;;;;;;;3.20;1.38;;;;;;;;;;5075399;28;20104;-28
2023/12/12 13:20:10;;;;;;;5.25;2.15;;;;;;;;;;5075089;28;20024;-31
2023/12/12 13:22:41;;;;;;;2.22;1.10;;;;;;;;;;5074759;28;20029;-31
2023/12/12 13:25:11;;;;;;;7.45;1.02;;;;;;;;;;5074727;28;20028;-31
2023/12/12 13:27:38;;;;;;;2.22;0.90;;;;;;;;;;5075210;28;20105;-28
2023/12/12 13:30:06;;;;;;;8.73;1.50;;;;;;;;;;5075148;28;20073;-29
2023/12/12 13:32:40;;;;;;;4.68;1.33;;;;;;;;;;5075119;28;20177;-25
2023/12/12 13:35:07;;;;;;;2.03;1.05;;;;;;;;;;5075082;28;20366;-26
2023/12/12 13:37:35;;;;;;;3.72;1.65;;;;;;;;;;5074956;28;20036;-25
2023/12/12 13:40:01;;;;;;;6.85;1.30;;;;;;;;;;5075024;28;20052;-31
2023/12/12 13:42:27;;;;;;;2.40;1.20;;;;;;;;;;5074875;28;20035;-27
2023/12/12 13:44:54;;;;;;;4.03;1.42;;;;;;;;;;5075077;28;20106;-26
2023/12/12 13:47:21;;;;;;;4.15;1.15;;;;;;;;;;5074743;28;20024;-27
2023/12/12 13:49:47;;;;;;;2.83;1.20;;;;;;;;;;5074760;28;20479;-29
2023/12/12 13:52:13;;;;;;;2.20;1.20;;;;;;;;;;5074625;28;20067;-31
2023/12/12 13:54:39;;;;;;;3.80;1.45;;;;;;;;;;5074916;28;20024;-29
2023/12/12 13:57:07;;;;;;;2.03;1.00;;;;;;;;;;5075205;28;20039;-26
2023/12/12 13:59:34;;;;;;;2.00;1.20;;;;;;;;;;5074837;28;20016;-28
2023/12/12 14:02:00;;;;;;;3.40;1.00;;;;;;;;;;5074569;28;20048;-29
2023/12/12 14:04:26;;;;;;;7.43;1.40;;;;;;;;;;5074402;28;20407;-26
2023/12/12 14:06:53;;;;;;;1.80;1.38;;;;;;;;;;5074534;28;20448;-29
2023/12/12 14:09:19;;;;;;;6.85;2.65;;;;;;;;;;5074515;28;20040;-28
2023/12/12 14:11:45;;;;;;;4.75;1.90;;;;;;;;;;5074539;28;20040;-32
2023/12/12 14:14:11;;;;;;;5.43;1.30;;;;;;;;;;5074042;28;20020;-27
2023/12/12 14:16:37;;;;;;;5.57;1.38;;;;;;;;;;5074303;28;20020;-27
2023/12/12 14:19:04;;;;;;;3.53;1.17;;;;;;;;;;5074401;28;20308;-29
2023/12/12 14:21:30;;;;;;;4.38;1.73;;;;;;;;;;5074655;28;20027;-29
2023/12/12 14:23:56;;;;;;;2.83;0.90;;;;;;;;;;5074254;28;20039;-29
2023/12/12 14:26:25;;;;;;;13.52;2.47;;;;;;;;;;5074209;28;20020;-30
2023/12/12 14:28:51;;;;;;;11.02;1.85;;;;;;;;;;5074443;28;20047;-28
2023/12/12 14:31:18;;;;;;;8.27;1.27;;;;;;;;;;5074293;28;20027;-30
2023/12/12 14:33:45;;;;;;;4.25;1.45;;;;;;;;;;5074444;28;20055;-26
2023/12/12 14:36:12;;;;;;;8.02;1.83;;;;;;;;;;5074096;28;20013;-26
2023/12/12 14:38:38;;;;;;;2.33;1.15;;;;;;;;;;5075197;28;20034;-27
2023/12/12 14:41:04;;;;;;;6.70;1.40;;;;;;;;;;5074109;28;20078;-28